TAF and METAR

Decoding for American and Canadian METARs and TAFs is not fully implemented.

Could not understand the following METAR

CYCB 030300Z 09015KT 12SM -SN OVC006 M02/M03 A3000 RMK SC8 SLP165

TAF for Cambridge Bay Airport

TAF CYCB 030038Z 0301/0313 09015KT P6SM -SN SCT007 OVC025 TEMPO 0301/0303 5SM -SN BKN007 OVC020 FM030300 09012KT 2SM -SN BR OVC005 TEMPO 0303/0313 6SM -SN SCT005 OVC012 RMK NXT FCST BY 030700Z
Report created 3. jun 02:38

between 3. jun 03:00 - 3. jun 15:00

wind 15 knots from E (090°)
Cambridge Bay Airport in Canada at 27m

Latest 5 airports